sensor_id;sensor_type;location;lat;lon;timestamp;pressure;altitude;pressure_sealevel;temperature;humidity
70158;BME280;57524;48.312;7.938;2022-10-16T00:00:20;99127.91;;;15.28;84.21
70158;BME280;57524;48.312;7.938;2022-10-16T00:02:47;99132.31;;;15.29;84.21
70158;BME280;57524;48.312;7.938;2022-10-16T00:05:13;99126.03;;;15.30;84.15
70158;BME280;57524;48.312;7.938;2022-10-16T00:07:40;99122.47;;;15.31;84.21
70158;BME280;57524;48.312;7.938;2022-10-16T00:10:07;99129.66;;;15.29;84.20
70158;BME280;57524;48.312;7.938;2022-10-16T00:12:33;99133.22;;;15.28;84.35
70158;BME280;57524;48.312;7.938;2022-10-16T00:15:02;99141.13;;;15.30;84.12
70158;BME280;57524;48.312;7.938;2022-10-16T00:17:29;99131.50;;;15.27;83.95
70158;BME280;57524;48.312;7.938;2022-10-16T00:19:56;99134.97;;;15.29;83.93
70158;BME280;57524;48.312;7.938;2022-10-16T00:22:23;99134.97;;;15.29;83.93
70158;BME280;57524;48.312;7.938;2022-10-16T00:24:50;99148.34;;;15.26;84.04
70158;BME280;57524;48.312;7.938;2022-10-16T00:27:16;99139.69;;;15.23;84.22
70158;BME280;57524;48.312;7.938;2022-10-16T00:29:43;99128.31;;;15.19;84.21
70158;BME280;57524;48.312;7.938;2022-10-16T00:32:11;99131.91;;;15.18;84.10
70158;BME280;57524;48.312;7.938;2022-10-16T00:34:37;99134.44;;;15.21;83.80
70158;BME280;57524;48.312;7.938;2022-10-16T00:37:04;99140.69;;;15.20;83.69
70158;BME280;57524;48.312;7.938;2022-10-16T00:39:31;99139.81;;;15.20;83.65
70158;BME280;57524;48.312;7.938;2022-10-16T00:41:57;99151.31;;;15.20;84.02
70158;BME280;57524;48.312;7.938;2022-10-16T00:44:46;99138.09;;;15.18;83.81
70158;BME280;57524;48.312;7.938;2022-10-16T00:47:19;99144.25;;;15.19;83.66
70158;BME280;57524;48.312;7.938;2022-10-16T00:49:47;99145.13;;;15.20;84.07
70158;BME280;57524;48.312;7.938;2022-10-16T00:52:16;99144.25;;;15.19;83.81
70158;BME280;57524;48.312;7.938;2022-10-16T00:54:44;99146.00;;;15.20;84.05
70158;BME280;57524;48.312;7.938;2022-10-16T00:57:12;99142.41;;;15.21;84.00
70158;BME280;57524;48.312;7.938;2022-10-16T00:59:40;99140.69;;;15.20;83.99
70158;BME280;57524;48.312;7.938;2022-10-16T01:02:10;99133.63;;;15.19;83.93
70158;BME280;57524;48.312;7.938;2022-10-16T01:04:41;99144.41;;;15.16;84.09
70158;BME280;57524;48.312;7.938;2022-10-16T01:07:13;99149.78;;;15.14;84.17
70158;BME280;57524;48.312;7.938;2022-10-16T01:09:47;99157.75;;;15.14;84.21
70158;BME280;57524;48.312;7.938;2022-10-16T01:12:23;99165.66;;;15.16;84.05
70158;BME280;57524;48.312;7.938;2022-10-16T01:14:54;99165.66;;;15.16;84.15
70158;BME280;57524;48.312;7.938;2022-10-16T01:17:28;99166.50;;;15.16;83.88
70158;BME280;57524;48.312;7.938;2022-10-16T01:20:08;99162.91;;;15.17;83.94
70158;BME280;57524;48.312;7.938;2022-10-16T01:22:45;99163.78;;;15.18;83.76
70158;BME280;57524;48.312;7.938;2022-10-16T01:25:20;99162.84;;;15.19;83.41
70158;BME280;57524;48.312;7.938;2022-10-16T01:27:51;99170.81;;;15.19;83.58
70158;BME280;57524;48.312;7.938;2022-10-16T01:30:21;99160.34;;;15.16;83.63
70158;BME280;57524;48.312;7.938;2022-10-16T01:32:52;99156.88;;;15.14;83.88
70158;BME280;57524;48.312;7.938;2022-10-16T01:35:23;99149.84;;;15.13;83.88
70158;BME280;57524;48.312;7.938;2022-10-16T01:37:55;99153.53;;;15.09;83.79
70158;BME280;57524;48.312;7.938;2022-10-16T01:40:26;99152.69;;;15.08;83.62
70158;BME280;57524;48.312;7.938;2022-10-16T01:42:59;99150.97;;;15.07;83.75
70158;BME280;57524;48.312;7.938;2022-10-16T01:45:30;99144.81;;;15.07;84.05
70158;BME280;57524;48.312;7.938;2022-10-16T01:47:59;99159.00;;;15.06;83.94
70158;BME280;57524;48.312;7.938;2022-10-16T01:50:29;99143.94;;;15.06;83.95
70158;BME280;57524;48.312;7.938;2022-10-16T01:52:58;99144.88;;;15.05;83.74
70158;BME280;57524;48.312;7.938;2022-10-16T01:55:29;99144.06;;;15.03;83.81
70158;BME280;57524;48.312;7.938;2022-10-16T01:57:59;99145.72;;;15.06;83.83
70158;BME280;57524;48.312;7.938;2022-10-16T02:00:28;99145.72;;;15.06;83.82
70158;BME280;57524;48.312;7.938;2022-10-16T02:02:57;99140.41;;;15.06;83.88
70158;BME280;57524;48.312;7.938;2022-10-16T02:05:28;99139.63;;;15.04;83.94
70158;BME280;57524;48.312;7.938;2022-10-16T02:07:57;99150.25;;;15.04;83.71
70158;BME280;57524;48.312;7.938;2022-10-16T02:10:24;99141.47;;;15.02;83.54
70158;BME280;57524;48.312;7.938;2022-10-16T02:12:56;99134.47;;;15.01;83.90
70158;BME280;57524;48.312;7.938;2022-10-16T02:15:25;99134.47;;;15.01;83.73
70158;BME280;57524;48.312;7.938;2022-10-16T02:17:51;99148.66;;;15.00;83.88
70158;BME280;57524;48.312;7.938;2022-10-16T02:20:25;99156.63;;;15.00;83.93
70158;BME280;57524;48.312;7.938;2022-10-16T02:22:54;99155.81;;;14.97;83.92
70158;BME280;57524;48.312;7.938;2022-10-16T02:25:26;99151.38;;;14.98;83.89
70158;BME280;57524;48.312;7.938;2022-10-16T02:27:55;99141.63;;;14.99;83.92
70158;BME280;57524;48.312;7.938;2022-10-16T02:30:29;99143.47;;;14.96;83.79
70158;BME280;57524;48.312;7.938;2022-10-16T02:32:59;99150.66;;;14.94;83.77
70158;BME280;57524;48.312;7.938;2022-10-16T02:35:27;99143.75;;;14.90;83.94
70158;BME280;57524;48.312;7.938;2022-10-16T02:37:55;99152.75;;;14.86;83.86
70158;BME280;57524;48.312;7.938;2022-10-16T02:40:24;99145.00;;;14.82;84.18
70158;BME280;57524;48.312;7.938;2022-10-16T02:42:52;99150.41;;;14.80;84.21
70158;BME280;57524;48.312;7.938;2022-10-16T02:45:19;99146.81;;;14.81;84.36
70158;BME280;57524;48.312;7.938;2022-10-16T02:47:47;99153.16;;;14.77;84.46
70158;BME280;57524;48.312;7.938;2022-10-16T02:50:14;99153.06;;;14.80;84.13
70158;BME280;57524;48.312;7.938;2022-10-16T02:52:41;99156.56;;;14.81;84.34
70158;BME280;57524;48.312;7.938;2022-10-16T02:55:08;99150.44;;;14.79;84.23
70158;BME280;57524;48.312;7.938;2022-10-16T02:57:35;99153.06;;;14.80;84.35
70158;BME280;57524;48.312;7.938;2022-10-16T03:00:03;99149.34;;;14.84;84.09
70158;BME280;57524;48.312;7.938;2022-10-16T03:02:30;99151.06;;;14.85;84.08
70158;BME280;57524;48.312;7.938;2022-10-16T03:04:58;99149.34;;;14.84;84.19
70158;BME280;57524;48.312;7.938;2022-10-16T03:07:24;99152.00;;;14.84;84.01
70158;BME280;57524;48.312;7.938;2022-10-16T03:09:51;99153.75;;;14.84;84.10
70158;BME280;57524;48.312;7.938;2022-10-16T03:12:17;99154.75;;;14.81;84.13
70158;BME280;57524;48.312;7.938;2022-10-16T03:14:44;99151.31;;;14.79;83.92
70158;BME280;57524;48.312;7.938;2022-10-16T03:17:11;99148.75;;;14.78;84.19
70158;BME280;57524;48.312;7.938;2022-10-16T03:19:38;99153.25;;;14.75;84.22
70158;BME280;57524;48.312;7.938;2022-10-16T03:22:06;99144.78;;;14.66;84.62
70158;BME280;57524;48.312;7.938;2022-10-16T03:24:32;99150.78;;;14.71;84.45
70158;BME280;57524;48.312;7.938;2022-10-16T03:26:59;99156.97;;;14.71;84.49
70158;BME280;57524;48.312;7.938;2022-10-16T03:29:25;99149.84;;;14.72;84.68
70158;BME280;57524;48.312;7.938;2022-10-16T03:31:54;99158.75;;;14.71;84.31
70158;BME280;57524;48.312;7.938;2022-10-16T03:34:21;99155.16;;;14.72;84.43
70158;BME280;57524;48.312;7.938;2022-10-16T03:36:47;99150.78;;;14.71;84.46
70158;BME280;57524;48.312;7.938;2022-10-16T03:39:15;99163.97;;;14.72;84.64
70158;BME280;57524;48.312;7.938;2022-10-16T03:41:42;99161.31;;;14.72;84.50
70158;BME280;57524;48.312;7.938;2022-10-16T03:44:09;99162.19;;;14.73;84.50
70158;BME280;57524;48.312;7.938;2022-10-16T03:46:35;99164.84;;;14.73;84.30
70158;BME280;57524;48.312;7.938;2022-10-16T03:49:02;99160.31;;;14.75;84.12
70158;BME280;57524;48.312;7.938;2022-10-16T03:51:28;99167.50;;;14.73;84.19
70158;BME280;57524;48.312;7.938;2022-10-16T03:53:55;99167.50;;;14.73;84.18
70158;BME280;57524;48.312;7.938;2022-10-16T03:56:23;99170.13;;;14.73;84.50
70158;BME280;57524;48.312;7.938;2022-10-16T03:58:49;99170.13;;;14.73;84.30
70158;BME280;57524;48.312;7.938;2022-10-16T04:01:16;99171.09;;;14.72;84.41
70158;BME280;57524;48.312;7.938;2022-10-16T04:03:43;99161.00;;;14.60;83.91
70158;BME280;57524;48.312;7.938;2022-10-16T04:06:09;99177.34;;;14.71;84.26
70158;BME280;57524;48.312;7.938;2022-10-16T04:08:36;99172.94;;;14.70;84.26
70158;BME280;57524;48.312;7.938;2022-10-16T04:11:04;99175.53;;;14.71;84.28
70158;BME280;57524;48.312;7.938;2022-10-16T04:13:32;99172.03;;;14.71;84.44
70158;BME280;57524;48.312;7.938;2022-10-16T04:15:59;99176.53;;;14.69;84.50
70158;BME280;57524;48.312;7.938;2022-10-16T04:18:25;99173.88;;;14.69;84.26
70158;BME280;57524;48.312;7.938;2022-10-16T04:20:53;99169.38;;;14.71;84.36
70158;BME280;57524;48.312;7.938;2022-10-16T04:23:19;99172.94;;;14.70;83.82
70158;BME280;57524;48.312;7.938;2022-10-16T04:25:48;99168.56;;;14.69;84.24
70158;BME280;57524;48.312;7.938;2022-10-16T04:28:14;99167.78;;;14.67;84.46
70158;BME280;57524;48.312;7.938;2022-10-16T04:30:42;99164.31;;;14.65;84.41
70158;BME280;57524;48.312;7.938;2022-10-16T04:33:09;99165.22;;;14.64;84.41
70158;BME280;57524;48.312;7.938;2022-10-16T04:35:35;99169.72;;;14.62;84.50
70158;BME280;57524;48.312;7.938;2022-10-16T04:38:02;99164.56;;;14.59;84.82
70158;BME280;57524;48.312;7.938;2022-10-16T04:40:29;99175.19;;;14.59;84.81
70158;BME280;57524;48.312;7.938;2022-10-16T04:42:58;99170.72;;;14.59;84.86
70158;BME280;57524;48.312;7.938;2022-10-16T04:45:24;99169.72;;;14.62;84.61
70158;BME280;57524;48.312;7.938;2022-10-16T04:47:52;99174.13;;;14.63;84.55
70158;BME280;57524;48.312;7.938;2022-10-16T04:50:19;99176.78;;;14.63;84.42
70158;BME280;57524;48.312;7.938;2022-10-16T04:53:00;99185.53;;;14.65;84.55
70158;BME280;57524;48.312;7.938;2022-10-16T04:55:27;99189.09;;;14.64;84.49
70158;BME280;57524;48.312;7.938;2022-10-16T04:57:53;99194.56;;;14.61;84.69
70158;BME280;57524;48.312;7.938;2022-10-16T05:00:20;99187.53;;;14.60;84.69
70158;BME280;57524;48.312;7.938;2022-10-16T05:02:49;99191.09;;;14.59;84.63
70158;BME280;57524;48.312;7.938;2022-10-16T05:05:17;99186.72;;;14.58;84.63
70158;BME280;57524;48.312;7.938;2022-10-16T05:07:44;99201.84;;;14.55;84.88
70158;BME280;57524;48.312;7.938;2022-10-16T05:10:11;99196.53;;;14.55;84.61
70158;BME280;57524;48.312;7.938;2022-10-16T05:12:37;99201.84;;;14.55;84.62
70158;BME280;57524;48.312;7.938;2022-10-16T05:15:05;99196.56;;;14.54;84.54
70158;BME280;57524;48.312;7.938;2022-10-16T05:17:32;99207.16;;;14.55;84.65
70158;BME280;57524;48.312;7.938;2022-10-16T05:19:58;99208.88;;;14.57;84.77
70158;BME280;57524;48.312;7.938;2022-10-16T05:22:26;99208.94;;;14.55;84.84
70158;BME280;57524;48.312;7.938;2022-10-16T05:24:53;99205.41;;;14.54;84.94
70158;BME280;57524;48.312;7.938;2022-10-16T05:27:20;99206.31;;;14.53;84.72
70158;BME280;57524;48.312;7.938;2022-10-16T05:29:46;99217.97;;;14.49;84.96
70158;BME280;57524;48.312;7.938;2022-10-16T05:32:14;99219.84;;;14.47;85.11
70158;BME280;57524;48.312;7.938;2022-10-16T05:34:41;99225.13;;;14.47;85.01
70158;BME280;57524;48.312;7.938;2022-10-16T05:37:08;99217.97;;;14.49;84.96
70158;BME280;57524;48.312;7.938;2022-10-16T05:39:36;99226.88;;;14.48;84.96
70158;BME280;57524;48.312;7.938;2022-10-16T05:42:03;99224.94;;;14.52;84.79
70158;BME280;57524;48.312;7.938;2022-10-16T05:44:29;99224.09;;;14.51;84.92
70158;BME280;57524;48.312;7.938;2022-10-16T05:46:56;99224.94;;;14.52;84.82
70158;BME280;57524;48.312;7.938;2022-10-16T05:49:23;99230.19;;;14.53;84.61
70158;BME280;57524;48.312;7.938;2022-10-16T05:51:49;99224.91;;;14.53;84.76
70158;BME280;57524;48.312;7.938;2022-10-16T05:54:16;99222.28;;;14.52;84.63
70158;BME280;57524;48.312;7.938;2022-10-16T05:56:44;99227.66;;;14.50;84.81
70158;BME280;57524;48.312;7.938;2022-10-16T05:59:11;99233.03;;;14.49;84.81
70158;BME280;57524;48.312;7.938;2022-10-16T06:01:37;99225.00;;;14.50;84.90
70158;BME280;57524;48.312;7.938;2022-10-16T06:04:04;99225.00;;;14.50;84.95
70158;BME280;57524;48.312;7.938;2022-10-16T06:06:30;99235.50;;;14.53;84.98
70158;BME280;57524;48.312;7.938;2022-10-16T06:08:57;99239.00;;;14.55;84.91
70158;BME280;57524;48.312;7.938;2022-10-16T06:11:26;99236.34;;;14.55;84.80
70158;BME280;57524;48.312;7.938;2022-10-16T06:13:57;99236.25;;;14.57;84.73
70158;BME280;57524;48.312;7.938;2022-10-16T06:16:24;99233.56;;;14.59;84.67
70158;BME280;57524;48.312;7.938;2022-10-16T06:18:52;99232.75;;;14.57;84.89
70158;BME280;57524;48.312;7.938;2022-10-16T06:21:21;99241.50;;;14.59;84.92
70158;BME280;57524;48.312;7.938;2022-10-16T06:23:50;99244.16;;;14.59;84.77
70158;BME280;57524;48.312;7.938;2022-10-16T06:26:18;99252.06;;;14.60;84.89
70158;BME280;57524;48.312;7.938;2022-10-16T06:28:45;99267.16;;;14.60;85.08
70158;BME280;57524;48.312;7.938;2022-10-16T06:31:14;99277.75;;;14.60;84.93
70158;BME280;57524;48.312;7.938;2022-10-16T06:33:41;99284.84;;;14.59;85.06
70158;BME280;57524;48.312;7.938;2022-10-16T06:36:10;99279.59;;;14.58;84.98
70158;BME280;57524;48.312;7.938;2022-10-16T06:38:37;99277.00;;;14.56;85.17
70158;BME280;57524;48.312;7.938;2022-10-16T06:41:05;99281.44;;;14.55;85.29
70158;BME280;57524;48.312;7.938;2022-10-16T06:43:33;99285.00;;;14.54;85.50
70158;BME280;57524;48.312;7.938;2022-10-16T06:46:01;99284.09;;;14.55;85.50
70158;BME280;57524;48.312;7.938;2022-10-16T06:48:29;99291.19;;;14.55;85.71
70158;BME280;57524;48.312;7.938;2022-10-16T06:50:58;99286.75;;;14.55;85.72
70158;BME280;57524;48.312;7.938;2022-10-16T06:53:25;99286.63;;;14.59;85.66
70158;BME280;57524;48.312;7.938;2022-10-16T06:55:52;99300.69;;;14.61;85.82
70158;BME280;57524;48.312;7.938;2022-10-16T06:58:19;99306.75;;;14.64;86.09
70158;BME280;57524;48.312;7.938;2022-10-16T07:00:46;99304.03;;;14.66;86.16
70158;BME280;57524;48.312;7.938;2022-10-16T07:03:13;99293.31;;;14.69;85.81
70158;BME280;57524;48.312;7.938;2022-10-16T07:05:42;99302.06;;;14.71;85.91
70158;BME280;57524;48.312;7.938;2022-10-16T07:08:08;99305.41;;;14.76;85.72
70158;BME280;57524;48.312;7.938;2022-10-16T07:10:35;99298.25;;;14.78;85.38
70158;BME280;57524;48.312;7.938;2022-10-16T07:13:02;99309.56;;;14.82;85.31
70158;BME280;57524;48.312;7.938;2022-10-16T07:15:29;99308.63;;;14.84;85.41
70158;BME280;57524;48.312;7.938;2022-10-16T07:17:55;99308.47;;;14.87;85.12
70158;BME280;57524;48.312;7.938;2022-10-16T07:20:22;99315.50;;;14.88;85.33
70158;BME280;57524;48.312;7.938;2022-10-16T07:22:50;99316.41;;;14.89;85.34
70158;BME280;57524;48.312;7.938;2022-10-16T07:25:16;99325.13;;;14.91;85.25
70158;BME280;57524;48.312;7.938;2022-10-16T07:27:43;99340.19;;;14.90;84.88
70158;BME280;57524;48.312;7.938;2022-10-16T07:30:10;99340.09;;;14.93;85.11
70158;BME280;57524;48.312;7.938;2022-10-16T07:32:37;99345.28;;;14.96;84.97
70158;BME280;57524;48.312;7.938;2022-10-16T07:35:04;99347.88;;;14.98;85.24
70158;BME280;57524;48.312;7.938;2022-10-16T07:37:31;99359.31;;;15.00;84.93
70158;BME280;57524;48.312;7.938;2022-10-16T07:39:59;99349.53;;;15.01;84.85
70158;BME280;57524;48.312;7.938;2022-10-16T07:42:27;99345.88;;;15.03;85.04
70158;BME280;57524;48.312;7.938;2022-10-16T07:44:53;99352.84;;;15.06;84.94
70158;BME280;57524;48.312;7.938;2022-10-16T07:47:20;99363.47;;;15.06;84.92
70158;BME280;57524;48.312;7.938;2022-10-16T07:49:46;99358.97;;;15.08;85.30
70158;BME280;57524;48.312;7.938;2022-10-16T07:52:13;99357.13;;;15.10;84.78
70158;BME280;57524;48.312;7.938;2022-10-16T07:54:40;99357.00;;;15.13;84.86
70158;BME280;57524;48.312;7.938;2022-10-16T07:57:08;99370.06;;;15.17;84.79
70158;BME280;57524;48.312;7.938;2022-10-16T07:59:34;99375.28;;;15.21;84.64
70158;BME280;57524;48.312;7.938;2022-10-16T08:02:01;99385.63;;;15.27;84.76
70158;BME280;57524;48.312;7.938;2022-10-16T08:04:28;99374.91;;;15.30;84.32
70158;BME280;57524;48.312;7.938;2022-10-16T08:06:54;99383.34;;;15.39;84.21
70158;BME280;57524;48.312;7.938;2022-10-16T08:09:21;99381.09;;;15.51;84.14
70158;BME280;57524;48.312;7.938;2022-10-16T08:11:47;99372.88;;;15.57;83.89
70158;BME280;57524;48.312;7.938;2022-10-16T08:14:15;99377.03;;;15.63;84.17
70158;BME280;57524;48.312;7.938;2022-10-16T08:16:42;99376.06;;;15.65;83.76
70158;BME280;57524;48.312;7.938;2022-10-16T08:19:08;99374.06;;;15.70;84.22
70158;BME280;57524;48.312;7.938;2022-10-16T08:21:35;99375.72;;;15.74;83.47
70158;BME280;57524;48.312;7.938;2022-10-16T08:24:02;99371.06;;;15.79;83.63
70158;BME280;57524;48.312;7.938;2022-10-16T08:26:29;99367.28;;;15.85;83.34
70158;BME280;57524;48.312;7.938;2022-10-16T08:28:56;99367.84;;;15.92;83.50
70158;BME280;57524;48.312;7.938;2022-10-16T08:31:24;99365.72;;;16.00;83.53
70158;BME280;57524;48.312;7.938;2022-10-16T08:33:51;99370.50;;;16.12;82.63
70158;BME280;57524;48.312;7.938;2022-10-16T08:36:17;99364.88;;;16.18;82.79
70158;BME280;57524;48.312;7.938;2022-10-16T08:38:47;99368.81;;;16.30;82.58
70158;BME280;57524;48.312;7.938;2022-10-16T08:41:37;99364.34;;;16.31;82.55
70158;BME280;57524;48.312;7.938;2022-10-16T08:44:27;99376.41;;;16.38;81.97
70158;BME280;57524;48.312;7.938;2022-10-16T08:47:04;99368.16;;;16.44;82.17
70158;BME280;57524;48.312;7.938;2022-10-16T08:49:35;99372.41;;;16.48;82.53
70158;BME280;57524;48.312;7.938;2022-10-16T08:52:02;99366.78;;;16.54;81.74
70158;BME280;57524;48.312;7.938;2022-10-16T08:54:31;99377.16;;;16.60;82.01
70158;BME280;57524;48.312;7.938;2022-10-16T08:57:09;99371.53;;;16.67;81.56
70158;BME280;57524;48.312;7.938;2022-10-16T08:59:37;99376.59;;;16.73;81.38
70158;BME280;57524;48.312;7.938;2022-10-16T09:02:20;99372.34;;;16.88;81.17
70158;BME280;57524;48.312;7.938;2022-10-16T09:04:56;99371.84;;;16.98;81.49
70158;BME280;57524;48.312;7.938;2022-10-16T09:07:29;99378.75;;;17.02;81.03
70158;BME280;57524;48.312;7.938;2022-10-16T09:10:11;99397.56;;;17.17;80.51
70158;BME280;57524;48.312;7.938;2022-10-16T09:12:46;99394.00;;;17.35;79.68
70158;BME280;57524;48.312;7.938;2022-10-16T09:15:24;99394.03;;;17.53;79.42
70158;BME280;57524;48.312;7.938;2022-10-16T09:17:58;99407.53;;;17.67;78.89
70158;BME280;57524;48.312;7.938;2022-10-16T09:20:34;99396.41;;;17.76;78.09
70158;BME280;57524;48.312;7.938;2022-10-16T09:23:15;99402.53;;;17.96;78.05
70158;BME280;57524;48.312;7.938;2022-10-16T09:25:45;99400.00;;;18.10;77.74
70158;BME280;57524;48.312;7.938;2022-10-16T09:28:13;99406.44;;;18.23;77.06
70158;BME280;57524;48.312;7.938;2022-10-16T09:30:39;99404.72;;;18.38;75.64
70158;BME280;57524;48.312;7.938;2022-10-16T09:33:09;99403.22;;;18.50;74.29
70158;BME280;57524;48.312;7.938;2022-10-16T09:35:37;99406.84;;;18.65;74.19
70158;BME280;57524;48.312;7.938;2022-10-16T09:38:05;99399.06;;;18.78;73.43
70158;BME280;57524;48.312;7.938;2022-10-16T09:40:33;99395.00;;;18.86;73.22
70158;BME280;57524;48.312;7.938;2022-10-16T09:43:18;99404.47;;;18.92;73.08
70158;BME280;57524;48.312;7.938;2022-10-16T09:45:54;99398.19;;;18.93;73.64
70158;BME280;57524;48.312;7.938;2022-10-16T09:48:25;99398.66;;;19.01;73.76
70158;BME280;57524;48.312;7.938;2022-10-16T09:50:57;99400.16;;;19.05;72.79
70158;BME280;57524;48.312;7.938;2022-10-16T09:53:26;99401.72;;;19.09;72.91
70158;BME280;57524;48.312;7.938;2022-10-16T09:56:02;99403.28;;;19.14;72.73
70158;BME280;57524;48.312;7.938;2022-10-16T09:58:32;99410.34;;;19.15;73.25
70158;BME280;57524;48.312;7.938;2022-10-16T10:00:59;99418.97;;;19.20;72.25
70158;BME280;57524;48.312;7.938;2022-10-16T10:03:38;99417.84;;;19.24;72.48
70158;BME280;57524;48.312;7.938;2022-10-16T10:06:16;99415.00;;;19.27;72.55
70158;BME280;57524;48.312;7.938;2022-10-16T10:08:57;99420.28;;;19.28;72.23
70158;BME280;57524;48.312;7.938;2022-10-16T10:11:48;99423.59;;;19.32;71.99
70158;BME280;57524;48.312;7.938;2022-10-16T10:14:27;99421.63;;;19.36;72.58
70158;BME280;57524;48.312;7.938;2022-10-16T10:17:16;99418.69;;;19.40;72.55
70158;BME280;57524;48.312;7.938;2022-10-16T10:19:50;99422.91;;;19.44;72.05
70158;BME280;57524;48.312;7.938;2022-10-16T10:22:27;99422.53;;;19.50;72.65
70158;BME280;57524;48.312;7.938;2022-10-16T10:25:14;99424.88;;;19.57;71.86
70158;BME280;57524;48.312;7.938;2022-10-16T10:27:50;99430.63;;;19.65;71.69
70158;BME280;57524;48.312;7.938;2022-10-16T10:30:22;99421.13;;;19.75;71.72
70158;BME280;57524;48.312;7.938;2022-10-16T10:33:02;99424.22;;;19.83;71.08
70158;BME280;57524;48.312;7.938;2022-10-16T10:35:41;99427.88;;;19.82;70.70
70158;BME280;57524;48.312;7.938;2022-10-16T10:38:21;99427.47;;;19.88;70.43
70158;BME280;57524;48.312;7.938;2022-10-16T10:40:56;99430.94;;;19.90;70.37
70158;BME280;57524;48.312;7.938;2022-10-16T10:43:37;99439.66;;;19.94;69.96
70158;BME280;57524;48.312;7.938;2022-10-16T10:46:11;99441.06;;;20.00;69.10
70158;BME280;57524;48.312;7.938;2022-10-16T10:52:01;99434.03;;;20.13;69.27
70158;BME280;57524;48.312;7.938;2022-10-16T10:54:34;99432.72;;;20.20;69.08
70158;BME280;57524;48.312;7.938;2022-10-16T10:57:09;99428.72;;;20.27;69.32
70158;BME280;57524;48.312;7.938;2022-10-16T10:59:55;99432.81;;;20.33;68.11
70158;BME280;57524;48.312;7.938;2022-10-16T11:02:26;99434.16;;;20.40;67.84
70158;BME280;57524;48.312;7.938;2022-10-16T11:08:00;99412.41;;;20.61;65.37
70158;BME280;57524;48.312;7.938;2022-10-16T11:10:31;99410.94;;;20.69;65.46
70158;BME280;57524;48.312;7.938;2022-10-16T11:13:17;99405.03;;;20.79;65.09
70158;BME280;57524;48.312;7.938;2022-10-16T11:15:48;99399.63;;;20.93;64.86
70158;BME280;57524;48.312;7.938;2022-10-16T11:18:20;99399.47;;;21.09;64.83
70158;BME280;57524;48.312;7.938;2022-10-16T11:20:52;99410.66;;;21.15;63.81
70158;BME280;57524;48.312;7.938;2022-10-16T11:23:26;99413.06;;;21.20;63.46
70158;BME280;57524;48.312;7.938;2022-10-16T11:25:57;99412.91;;;21.36;62.64
70158;BME280;57524;48.312;7.938;2022-10-16T11:28:28;99404.84;;;21.50;61.22
70158;BME280;57524;48.312;7.938;2022-10-16T11:31:00;99413.22;;;21.58;60.05
70158;BME280;57524;48.312;7.938;2022-10-16T11:33:33;99401.88;;;21.68;58.45
70158;BME280;57524;48.312;7.938;2022-10-16T11:36:08;99400.41;;;21.89;57.10
70158;BME280;57524;48.312;7.938;2022-10-16T11:38:43;99400.00;;;21.95;57.22
70158;BME280;57524;48.312;7.938;2022-10-16T11:41:16;99392.25;;;22.04;56.47
70158;BME280;57524;48.312;7.938;2022-10-16T11:43:49;99385.19;;;22.03;56.35
70158;BME280;57524;48.312;7.938;2022-10-16T11:46:21;99389.56;;;22.04;55.84
70158;BME280;57524;48.312;7.938;2022-10-16T11:48:55;99399.16;;;22.08;54.45
70158;BME280;57524;48.312;7.938;2022-10-16T11:51:30;99400.13;;;22.07;53.96
70158;BME280;57524;48.312;7.938;2022-10-16T11:54:04;99404.50;;;22.08;53.66
70158;BME280;57524;48.312;7.938;2022-10-16T11:56:38;99399.16;;;22.08;53.44
70158;BME280;57524;48.312;7.938;2022-10-16T11:59:11;99405.03;;;22.13;53.20
70158;BME280;57524;48.312;7.938;2022-10-16T12:01:45;99396.56;;;22.19;53.77
70158;BME280;57524;48.312;7.938;2022-10-16T12:04:21;99387.78;;;22.42;54.43
70158;BME280;57524;48.312;7.938;2022-10-16T12:06:57;99383.63;;;22.75;53.89
70158;BME280;57524;48.312;7.938;2022-10-16T12:09:28;99382.00;;;22.86;54.42
70158;BME280;57524;48.312;7.938;2022-10-16T12:11:55;99383.63;;;23.01;53.74
70158;BME280;57524;48.312;7.938;2022-10-16T12:14:37;99384.78;;;23.10;51.39
70158;BME280;57524;48.312;7.938;2022-10-16T12:17:23;99374.38;;;23.05;50.58
70158;BME280;57524;48.312;7.938;2022-10-16T12:20:01;99373.03;;;22.98;50.42
70158;BME280;57524;48.312;7.938;2022-10-16T12:22:41;99377.59;;;22.84;51.06
70158;BME280;57524;48.312;7.938;2022-10-16T12:25:21;99379.78;;;22.79;51.71
70158;BME280;57524;48.312;7.938;2022-10-16T12:27:54;99378.50;;;22.72;52.52
70158;BME280;57524;48.312;7.938;2022-10-16T12:30:23;99382.16;;;22.71;54.08
70158;BME280;57524;48.312;7.938;2022-10-16T12:32:55;99378.25;;;22.75;53.32
70158;BME280;57524;48.312;7.938;2022-10-16T12:35:24;99378.06;;;22.78;52.55
70158;BME280;57524;48.312;7.938;2022-10-16T12:37:52;99377.41;;;22.75;53.15
70158;BME280;57524;48.312;7.938;2022-10-16T12:40:28;99374.81;;;22.73;53.34
70158;BME280;57524;48.312;7.938;2022-10-16T12:42:56;99372.38;;;22.70;53.43
70158;BME280;57524;48.312;7.938;2022-10-16T12:45:28;99368.72;;;22.71;53.54
70158;BME280;57524;48.312;7.938;2022-10-16T12:47:57;99364.31;;;22.70;53.67
70158;BME280;57524;48.312;7.938;2022-10-16T12:50:27;99372.28;;;22.72;53.91
70158;BME280;57524;48.312;7.938;2022-10-16T12:52:56;99374.09;;;22.71;54.43
70158;BME280;57524;48.312;7.938;2022-10-16T12:55:23;99368.50;;;22.74;54.82
70158;BME280;57524;48.312;7.938;2022-10-16T12:58:11;99371.19;;;22.74;55.77
70158;BME280;57524;48.312;7.938;2022-10-16T13:00:44;99366.03;;;22.71;55.51
70158;BME280;57524;48.312;7.938;2022-10-16T13:03:32;99361.63;;;22.70;55.01
70158;BME280;57524;48.312;7.938;2022-10-16T13:06:12;99358.50;;;22.76;54.62
70158;BME280;57524;48.312;7.938;2022-10-16T13:08:52;99360.50;;;23.22;54.15
70158;BME280;57524;48.312;7.938;2022-10-16T13:11:41;99355.59;;;23.52;52.58
70158;BME280;57524;48.312;7.938;2022-10-16T13:14:28;99357.09;;;23.80;51.71
70158;BME280;57524;48.312;7.938;2022-10-16T13:17:04;99351.75;;;24.36;51.58
70158;BME280;57524;48.312;7.938;2022-10-16T13:19:40;99346.75;;;24.65;50.77
70158;BME280;57524;48.312;7.938;2022-10-16T13:22:16;99361.34;;;24.74;50.15